sensor_id;sensor_type;location;lat;lon;timestamp;P1;durP1;ratioP1;P2;durP2;ratioP2
19519;SDS011;9904;52.246;20.898;2023-09-07T00:00:15;25.03;;;9.07;;
19519;SDS011;9904;52.246;20.898;2023-09-07T00:02:42;19.40;;;8.53;;
19519;SDS011;9904;52.246;20.898;2023-09-07T00:05:09;23.47;;;8.50;;
19519;SDS011;9904;52.246;20.898;2023-09-07T00:07:36;16.33;;;8.43;;
19519;SDS011;9904;52.246;20.898;2023-09-07T00:10:03;20.60;;;7.90;;
19519;SDS011;9904;52.246;20.898;2023-09-07T00:12:31;17.77;;;8.13;;
19519;SDS011;9904;52.246;20.898;2023-09-07T00:14:57;23.37;;;9.13;;
19519;SDS011;9904;52.246;20.898;2023-09-07T00:17:24;23.47;;;10.00;;
19519;SDS011;9904;52.246;20.898;2023-09-07T00:19:51;17.87;;;8.50;;
19519;SDS011;9904;52.246;20.898;2023-09-07T00:22:18;22.73;;;8.90;;
19519;SDS011;9904;52.246;20.898;2023-09-07T00:24:46;20.07;;;8.50;;
19519;SDS011;9904;52.246;20.898;2023-09-07T00:27:13;18.30;;;8.17;;
19519;SDS011;9904;52.246;20.898;2023-09-07T00:29:39;16.60;;;7.13;;
19519;SDS011;9904;52.246;20.898;2023-09-07T00:32:06;20.20;;;7.67;;
19519;SDS011;9904;52.246;20.898;2023-09-07T00:34:33;20.83;;;7.53;;
19519;SDS011;9904;52.246;20.898;2023-09-07T00:37:00;18.60;;;7.50;;
19519;SDS011;9904;52.246;20.898;2023-09-07T00:39:26;19.23;;;7.97;;
19519;SDS011;9904;52.246;20.898;2023-09-07T00:41:53;15.17;;;8.17;;
19519;SDS011;9904;52.246;20.898;2023-09-07T00:44:21;27.27;;;9.10;;
19519;SDS011;9904;52.246;20.898;2023-09-07T00:46:47;25.17;;;9.73;;
19519;SDS011;9904;52.246;20.898;2023-09-07T00:49:14;24.47;;;9.20;;
19519;SDS011;9904;52.246;20.898;2023-09-07T00:51:41;19.83;;;7.90;;
19519;SDS011;9904;52.246;20.898;2023-09-07T00:54:07;24.10;;;9.10;;
19519;SDS011;9904;52.246;20.898;2023-09-07T00:56:34;21.80;;;8.60;;
19519;SDS011;9904;52.246;20.898;2023-09-07T00:59:02;21.63;;;8.87;;
19519;SDS011;9904;52.246;20.898;2023-09-07T01:01:30;16.00;;;8.40;;
19519;SDS011;9904;52.246;20.898;2023-09-07T01:03:58;20.60;;;8.83;;
19519;SDS011;9904;52.246;20.898;2023-09-07T01:06:32;23.07;;;9.00;;
19519;SDS011;9904;52.246;20.898;2023-09-07T01:09:25;23.10;;;9.13;;
19519;SDS011;9904;52.246;20.898;2023-09-07T01:11:54;23.63;;;9.57;;
19519;SDS011;9904;52.246;20.898;2023-09-07T01:14:21;20.67;;;8.90;;
19519;SDS011;9904;52.246;20.898;2023-09-07T01:16:48;19.67;;;9.17;;
19519;SDS011;9904;52.246;20.898;2023-09-07T01:19:16;24.93;;;9.90;;
19519;SDS011;9904;52.246;20.898;2023-09-07T01:21:43;18.00;;;8.20;;
19519;SDS011;9904;52.246;20.898;2023-09-07T01:24:10;24.97;;;8.73;;
19519;SDS011;9904;52.246;20.898;2023-09-07T01:26:38;22.07;;;8.83;;
19519;SDS011;9904;52.246;20.898;2023-09-07T01:29:05;20.33;;;8.60;;
19519;SDS011;9904;52.246;20.898;2023-09-07T01:31:35;17.13;;;8.67;;
19519;SDS011;9904;52.246;20.898;2023-09-07T01:34:04;19.10;;;8.07;;
19519;SDS011;9904;52.246;20.898;2023-09-07T01:36:31;23.57;;;8.07;;
19519;SDS011;9904;52.246;20.898;2023-09-07T01:38:58;21.17;;;8.10;;
19519;SDS011;9904;52.246;20.898;2023-09-07T01:41:25;18.40;;;7.73;;
19519;SDS011;9904;52.246;20.898;2023-09-07T01:43:52;16.70;;;8.33;;
19519;SDS011;9904;52.246;20.898;2023-09-07T01:46:18;20.83;;;8.33;;
19519;SDS011;9904;52.246;20.898;2023-09-07T01:48:46;20.20;;;8.57;;
19519;SDS011;9904;52.246;20.898;2023-09-07T01:51:12;19.27;;;8.80;;
19519;SDS011;9904;52.246;20.898;2023-09-07T01:53:39;16.80;;;8.63;;
19519;SDS011;9904;52.246;20.898;2023-09-07T01:56:05;16.50;;;8.17;;
19519;SDS011;9904;52.246;20.898;2023-09-07T01:58:32;26.30;;;9.30;;
19519;SDS011;9904;52.246;20.898;2023-09-07T02:01:00;14.40;;;8.20;;
19519;SDS011;9904;52.246;20.898;2023-09-07T02:03:26;23.20;;;8.60;;
19519;SDS011;9904;52.246;20.898;2023-09-07T02:05:53;20.37;;;8.47;;
19519;SDS011;9904;52.246;20.898;2023-09-07T02:08:21;23.23;;;8.97;;
19519;SDS011;9904;52.246;20.898;2023-09-07T02:10:47;27.33;;;9.63;;
19519;SDS011;9904;52.246;20.898;2023-09-07T02:13:14;17.70;;;8.53;;
19519;SDS011;9904;52.246;20.898;2023-09-07T02:15:41;18.30;;;9.40;;
19519;SDS011;9904;52.246;20.898;2023-09-07T02:18:07;20.20;;;9.53;;
19519;SDS011;9904;52.246;20.898;2023-09-07T02:20:34;16.70;;;10.07;;
19519;SDS011;9904;52.246;20.898;2023-09-07T02:23:01;19.63;;;9.70;;
19519;SDS011;9904;52.246;20.898;2023-09-07T02:25:28;17.57;;;9.40;;
19519;SDS011;9904;52.246;20.898;2023-09-07T02:27:57;16.70;;;9.40;;
19519;SDS011;9904;52.246;20.898;2023-09-07T02:30:23;19.63;;;8.97;;
19519;SDS011;9904;52.246;20.898;2023-09-07T02:32:50;23.13;;;9.97;;
19519;SDS011;9904;52.246;20.898;2023-09-07T02:35:17;18.97;;;10.40;;
19519;SDS011;9904;52.246;20.898;2023-09-07T02:37:43;17.47;;;10.17;;
19519;SDS011;9904;52.246;20.898;2023-09-07T02:40:10;20.63;;;10.10;;
19519;SDS011;9904;52.246;20.898;2023-09-07T02:42:37;17.70;;;9.83;;
19519;SDS011;9904;52.246;20.898;2023-09-07T02:45:04;20.07;;;10.37;;
19519;SDS011;9904;52.246;20.898;2023-09-07T02:47:31;30.57;;;13.03;;
19519;SDS011;9904;52.246;20.898;2023-09-07T02:49:58;25.43;;;12.97;;
19519;SDS011;9904;52.246;20.898;2023-09-07T02:52:24;22.97;;;12.90;;
19519;SDS011;9904;52.246;20.898;2023-09-07T02:54:51;26.03;;;12.97;;
19519;SDS011;9904;52.246;20.898;2023-09-07T02:57:18;25.20;;;12.20;;
19519;SDS011;9904;52.246;20.898;2023-09-07T02:59:44;23.77;;;11.67;;
19519;SDS011;9904;52.246;20.898;2023-09-07T03:02:11;28.20;;;13.33;;
19519;SDS011;9904;52.246;20.898;2023-09-07T03:04:38;23.53;;;12.13;;
19519;SDS011;9904;52.246;20.898;2023-09-07T03:07:05;20.43;;;12.00;;
19519;SDS011;9904;52.246;20.898;2023-09-07T03:09:32;27.20;;;13.47;;
19519;SDS011;9904;52.246;20.898;2023-09-07T03:11:58;21.70;;;12.43;;
19519;SDS011;9904;52.246;20.898;2023-09-07T03:14:25;23.00;;;11.50;;
19519;SDS011;9904;52.246;20.898;2023-09-07T03:16:52;22.33;;;11.47;;
19519;SDS011;9904;52.246;20.898;2023-09-07T03:19:21;24.10;;;12.17;;
19519;SDS011;9904;52.246;20.898;2023-09-07T03:21:48;26.23;;;11.87;;
19519;SDS011;9904;52.246;20.898;2023-09-07T03:24:14;22.57;;;12.17;;
19519;SDS011;9904;52.246;20.898;2023-09-07T03:26:42;24.43;;;12.67;;
19519;SDS011;9904;52.246;20.898;2023-09-07T03:29:09;26.67;;;12.47;;
19519;SDS011;9904;52.246;20.898;2023-09-07T03:31:36;21.80;;;10.83;;
19519;SDS011;9904;52.246;20.898;2023-09-07T03:34:03;21.63;;;11.50;;
19519;SDS011;9904;52.246;20.898;2023-09-07T03:36:30;22.83;;;11.80;;
19519;SDS011;9904;52.246;20.898;2023-09-07T03:38:57;29.37;;;11.47;;
19519;SDS011;9904;52.246;20.898;2023-09-07T03:41:23;17.97;;;10.23;;
19519;SDS011;9904;52.246;20.898;2023-09-07T03:43:56;24.40;;;12.80;;
19519;SDS011;9904;52.246;20.898;2023-09-07T03:46:23;22.87;;;11.10;;
19519;SDS011;9904;52.246;20.898;2023-09-07T03:48:50;21.53;;;11.50;;
19519;SDS011;9904;52.246;20.898;2023-09-07T03:51:16;22.13;;;11.93;;
19519;SDS011;9904;52.246;20.898;2023-09-07T03:53:43;20.20;;;11.77;;
19519;SDS011;9904;52.246;20.898;2023-09-07T03:56:10;24.00;;;11.23;;
19519;SDS011;9904;52.246;20.898;2023-09-07T03:58:36;35.53;;;12.80;;
19519;SDS011;9904;52.246;20.898;2023-09-07T04:01:03;26.53;;;13.17;;
19519;SDS011;9904;52.246;20.898;2023-09-07T04:03:30;23.70;;;12.93;;
19519;SDS011;9904;52.246;20.898;2023-09-07T04:05:58;25.13;;;12.80;;
19519;SDS011;9904;52.246;20.898;2023-09-07T04:08:25;26.70;;;13.70;;
19519;SDS011;9904;52.246;20.898;2023-09-07T04:10:53;25.13;;;13.20;;
19519;SDS011;9904;52.246;20.898;2023-09-07T04:13:20;25.23;;;12.80;;
19519;SDS011;9904;52.246;20.898;2023-09-07T04:15:49;25.77;;;14.23;;
19519;SDS011;9904;52.246;20.898;2023-09-07T04:18:15;22.47;;;13.40;;
19519;SDS011;9904;52.246;20.898;2023-09-07T04:20:43;28.37;;;13.87;;
19519;SDS011;9904;52.246;20.898;2023-09-07T04:23:11;24.17;;;13.67;;
19519;SDS011;9904;52.246;20.898;2023-09-07T04:25:38;24.23;;;13.97;;
19519;SDS011;9904;52.246;20.898;2023-09-07T04:28:05;23.67;;;12.67;;
19519;SDS011;9904;52.246;20.898;2023-09-07T04:30:33;22.70;;;11.70;;
19519;SDS011;9904;52.246;20.898;2023-09-07T04:33:03;26.23;;;12.30;;
19519;SDS011;9904;52.246;20.898;2023-09-07T04:35:30;21.47;;;11.20;;
19519;SDS011;9904;52.246;20.898;2023-09-07T04:37:59;16.07;;;10.17;;
19519;SDS011;9904;52.246;20.898;2023-09-07T04:40:26;22.87;;;11.40;;
19519;SDS011;9904;52.246;20.898;2023-09-07T04:42:53;21.30;;;11.10;;
19519;SDS011;9904;52.246;20.898;2023-09-07T04:45:19;24.90;;;12.97;;
19519;SDS011;9904;52.246;20.898;2023-09-07T04:47:49;20.37;;;11.47;;
19519;SDS011;9904;52.246;20.898;2023-09-07T04:50:16;23.90;;;11.80;;
19519;SDS011;9904;52.246;20.898;2023-09-07T04:52:43;19.87;;;11.57;;
19519;SDS011;9904;52.246;20.898;2023-09-07T04:55:10;25.70;;;12.63;;
19519;SDS011;9904;52.246;20.898;2023-09-07T04:57:36;23.27;;;13.17;;
19519;SDS011;9904;52.246;20.898;2023-09-07T05:00:07;36.20;;;18.03;;
19519;SDS011;9904;52.246;20.898;2023-09-07T05:02:37;28.47;;;12.90;;
19519;SDS011;9904;52.246;20.898;2023-09-07T05:05:08;26.77;;;12.73;;
19519;SDS011;9904;52.246;20.898;2023-09-07T05:07:35;24.10;;;13.03;;
19519;SDS011;9904;52.246;20.898;2023-09-07T05:10:01;25.23;;;13.63;;
19519;SDS011;9904;52.246;20.898;2023-09-07T05:12:29;27.10;;;13.77;;
19519;SDS011;9904;52.246;20.898;2023-09-07T05:14:56;25.17;;;13.57;;
19519;SDS011;9904;52.246;20.898;2023-09-07T05:17:23;23.93;;;13.00;;
19519;SDS011;9904;52.246;20.898;2023-09-07T05:19:49;24.93;;;13.00;;
19519;SDS011;9904;52.246;20.898;2023-09-07T05:22:16;24.67;;;12.60;;
19519;SDS011;9904;52.246;20.898;2023-09-07T05:24:43;26.87;;;13.57;;
19519;SDS011;9904;52.246;20.898;2023-09-07T05:27:13;22.87;;;13.07;;
19519;SDS011;9904;52.246;20.898;2023-09-07T05:29:40;19.90;;;13.00;;
19519;SDS011;9904;52.246;20.898;2023-09-07T05:32:06;31.33;;;13.57;;
19519;SDS011;9904;52.246;20.898;2023-09-07T05:34:35;26.73;;;13.90;;
19519;SDS011;9904;52.246;20.898;2023-09-07T05:37:02;28.30;;;13.77;;
19519;SDS011;9904;52.246;20.898;2023-09-07T05:39:29;27.70;;;13.57;;
19519;SDS011;9904;52.246;20.898;2023-09-07T05:41:55;25.50;;;13.43;;
19519;SDS011;9904;52.246;20.898;2023-09-07T05:44:22;29.73;;;14.60;;
19519;SDS011;9904;52.246;20.898;2023-09-07T05:46:49;30.13;;;14.30;;
19519;SDS011;9904;52.246;20.898;2023-09-07T05:49:15;31.60;;;15.30;;
19519;SDS011;9904;52.246;20.898;2023-09-07T05:51:42;26.27;;;14.17;;
19519;SDS011;9904;52.246;20.898;2023-09-07T05:54:09;32.73;;;14.67;;
19519;SDS011;9904;52.246;20.898;2023-09-07T05:56:35;27.73;;;14.43;;
19519;SDS011;9904;52.246;20.898;2023-09-07T05:59:02;28.70;;;14.97;;
19519;SDS011;9904;52.246;20.898;2023-09-07T06:01:29;29.07;;;14.60;;
19519;SDS011;9904;52.246;20.898;2023-09-07T06:03:55;30.80;;;14.40;;
19519;SDS011;9904;52.246;20.898;2023-09-07T06:06:22;31.83;;;14.70;;
19519;SDS011;9904;52.246;20.898;2023-09-07T06:08:49;27.00;;;14.40;;
19519;SDS011;9904;52.246;20.898;2023-09-07T06:11:16;35.63;;;14.17;;
19519;SDS011;9904;52.246;20.898;2023-09-07T06:13:42;29.47;;;14.40;;
19519;SDS011;9904;52.246;20.898;2023-09-07T06:16:09;28.07;;;14.10;;
19519;SDS011;9904;52.246;20.898;2023-09-07T06:18:35;32.40;;;14.50;;
19519;SDS011;9904;52.246;20.898;2023-09-07T06:21:02;29.63;;;14.33;;
19519;SDS011;9904;52.246;20.898;2023-09-07T06:23:31;28.67;;;13.37;;
19519;SDS011;9904;52.246;20.898;2023-09-07T06:25:58;36.87;;;14.73;;
19519;SDS011;9904;52.246;20.898;2023-09-07T06:28:25;28.90;;;13.90;;
19519;SDS011;9904;52.246;20.898;2023-09-07T06:30:52;28.77;;;13.80;;
19519;SDS011;9904;52.246;20.898;2023-09-07T06:33:19;36.83;;;15.00;;
19519;SDS011;9904;52.246;20.898;2023-09-07T06:35:46;30.23;;;14.17;;
19519;SDS011;9904;52.246;20.898;2023-09-07T06:38:13;46.37;;;14.23;;
19519;SDS011;9904;52.246;20.898;2023-09-07T06:40:40;29.10;;;12.93;;
19519;SDS011;9904;52.246;20.898;2023-09-07T06:43:08;26.60;;;13.27;;
19519;SDS011;9904;52.246;20.898;2023-09-07T06:45:35;30.43;;;12.70;;
19519;SDS011;9904;52.246;20.898;2023-09-07T06:48:02;32.97;;;13.93;;
19519;SDS011;9904;52.246;20.898;2023-09-07T06:50:30;36.73;;;14.47;;
19519;SDS011;9904;52.246;20.898;2023-09-07T06:52:57;33.77;;;14.27;;
19519;SDS011;9904;52.246;20.898;2023-09-07T06:55:23;26.60;;;13.80;;
19519;SDS011;9904;52.246;20.898;2023-09-07T06:57:50;23.30;;;12.63;;
19519;SDS011;9904;52.246;20.898;2023-09-07T07:00:21;25.13;;;12.80;;
19519;SDS011;9904;52.246;20.898;2023-09-07T07:02:48;24.13;;;12.03;;
19519;SDS011;9904;52.246;20.898;2023-09-07T07:05:15;32.00;;;10.53;;
19519;SDS011;9904;52.246;20.898;2023-09-07T07:07:42;29.20;;;11.03;;
19519;SDS011;9904;52.246;20.898;2023-09-07T07:10:09;24.93;;;10.53;;
19519;SDS011;9904;52.246;20.898;2023-09-07T07:12:38;23.73;;;9.80;;
19519;SDS011;9904;52.246;20.898;2023-09-07T07:15:07;30.77;;;10.03;;
19519;SDS011;9904;52.246;20.898;2023-09-07T07:17:37;27.73;;;10.15;;
19519;SDS011;9904;52.246;20.898;2023-09-07T07:20:04;24.50;;;9.75;;
19519;SDS011;9904;52.246;20.898;2023-09-07T07:22:32;25.58;;;10.05;;
19519;SDS011;9904;52.246;20.898;2023-09-07T07:25:01;20.00;;;9.82;;
19519;SDS011;9904;52.246;20.898;2023-09-07T07:27:32;25.98;;;11.20;;
19519;SDS011;9904;52.246;20.898;2023-09-07T07:29:58;28.35;;;10.70;;
19519;SDS011;9904;52.246;20.898;2023-09-07T07:32:26;24.35;;;10.13;;
19519;SDS011;9904;52.246;20.898;2023-09-07T07:34:53;21.42;;;9.40;;
19519;SDS011;9904;52.246;20.898;2023-09-07T07:37:25;28.38;;;9.80;;
19519;SDS011;9904;52.246;20.898;2023-09-07T07:39:52;26.38;;;9.00;;
19519;SDS011;9904;52.246;20.898;2023-09-07T07:42:18;19.88;;;9.27;;
19519;SDS011;9904;52.246;20.898;2023-09-07T07:44:47;21.15;;;9.20;;
19519;SDS011;9904;52.246;20.898;2023-09-07T07:47:14;25.08;;;9.07;;
19519;SDS011;9904;52.246;20.898;2023-09-07T07:49:41;15.27;;;8.55;;
19519;SDS011;9904;52.246;20.898;2023-09-07T07:52:08;17.23;;;8.95;;
19519;SDS011;9904;52.246;20.898;2023-09-07T07:54:34;18.50;;;9.48;;
19519;SDS011;9904;52.246;20.898;2023-09-07T07:57:02;15.57;;;8.90;;
19519;SDS011;9904;52.246;20.898;2023-09-07T07:59:29;22.10;;;8.75;;
19519;SDS011;9904;52.246;20.898;2023-09-07T08:01:56;14.90;;;9.68;;
19519;SDS011;9904;52.246;20.898;2023-09-07T08:04:23;11.20;;;7.47;;
19519;SDS011;9904;52.246;20.898;2023-09-07T08:06:50;17.00;;;8.57;;
19519;SDS011;9904;52.246;20.898;2023-09-07T08:09:21;17.50;;;8.52;;
19519;SDS011;9904;52.246;20.898;2023-09-07T08:11:48;15.75;;;8.27;;
19519;SDS011;9904;52.246;20.898;2023-09-07T08:14:16;19.92;;;8.63;;
19519;SDS011;9904;52.246;20.898;2023-09-07T08:16:43;20.50;;;8.57;;
19519;SDS011;9904;52.246;20.898;2023-09-07T08:19:10;29.98;;;8.80;;
19519;SDS011;9904;52.246;20.898;2023-09-07T08:21:37;25.05;;;9.23;;
19519;SDS011;9904;52.246;20.898;2023-09-07T08:24:04;16.80;;;8.55;;
19519;SDS011;9904;52.246;20.898;2023-09-07T08:26:32;16.73;;;7.95;;
19519;SDS011;9904;52.246;20.898;2023-09-07T08:28:58;31.48;;;9.20;;
19519;SDS011;9904;52.246;20.898;2023-09-07T08:31:25;18.65;;;8.65;;
19519;SDS011;9904;52.246;20.898;2023-09-07T08:33:52;17.13;;;8.18;;
19519;SDS011;9904;52.246;20.898;2023-09-07T08:36:22;21.60;;;8.80;;
19519;SDS011;9904;52.246;20.898;2023-09-07T08:38:50;19.33;;;8.13;;
19519;SDS011;9904;52.246;20.898;2023-09-07T08:41:21;23.98;;;7.72;;
19519;SDS011;9904;52.246;20.898;2023-09-07T08:43:49;25.00;;;8.23;;
19519;SDS011;9904;52.246;20.898;2023-09-07T08:46:24;14.75;;;7.22;;
19519;SDS011;9904;52.246;20.898;2023-09-07T08:48:51;16.23;;;6.43;;
19519;SDS011;9904;52.246;20.898;2023-09-07T08:51:19;20.83;;;7.53;;
19519;SDS011;9904;52.246;20.898;2023-09-07T08:53:46;16.63;;;6.68;;
19519;SDS011;9904;52.246;20.898;2023-09-07T08:56:14;19.02;;;7.25;;
19519;SDS011;9904;52.246;20.898;2023-09-07T08:58:42;13.10;;;6.10;;
19519;SDS011;9904;52.246;20.898;2023-09-07T09:01:11;18.67;;;6.20;;
19519;SDS011;9904;52.246;20.898;2023-09-07T09:03:39;13.67;;;6.40;;
19519;SDS011;9904;52.246;20.898;2023-09-07T09:06:06;17.63;;;6.87;;
19519;SDS011;9904;52.246;20.898;2023-09-07T09:11:33;14.57;;;6.07;;
19519;SDS011;9904;52.246;20.898;2023-09-07T09:14:00;13.77;;;5.93;;
19519;SDS011;9904;52.246;20.898;2023-09-07T09:16:26;18.53;;;5.37;;
19519;SDS011;9904;52.246;20.898;2023-09-07T09:18:54;14.57;;;5.03;;
19519;SDS011;9904;52.246;20.898;2023-09-07T09:21:23;6.93;;;4.43;;
19519;SDS011;9904;52.246;20.898;2023-09-07T09:23:52;16.03;;;5.30;;
19519;SDS011;9904;52.246;20.898;2023-09-07T09:26:19;15.27;;;5.63;;
19519;SDS011;9904;52.246;20.898;2023-09-07T22:46:15;15.00;;;5.10;;
19519;SDS011;9904;52.246;20.898;2023-09-07T22:48:42;9.30;;;5.00;;
19519;SDS011;9904;52.246;20.898;2023-09-07T22:51:10;12.57;;;5.37;;
19519;SDS011;9904;52.246;20.898;2023-09-07T22:53:36;14.63;;;5.27;;
19519;SDS011;9904;52.246;20.898;2023-09-07T22:56:03;12.63;;;5.77;;
19519;SDS011;9904;52.246;20.898;2023-09-07T22:58:30;10.23;;;5.43;;
19519;SDS011;9904;52.246;20.898;2023-09-07T23:00:58;10.47;;;4.97;;
19519;SDS011;9904;52.246;20.898;2023-09-07T23:03:24;10.10;;;5.23;;
19519;SDS011;9904;52.246;20.898;2023-09-07T23:05:51;12.80;;;6.03;;
19519;SDS011;9904;52.246;20.898;2023-09-07T23:08:18;11.17;;;5.50;;
19519;SDS011;9904;52.246;20.898;2023-09-07T23:10:46;11.30;;;5.00;;
19519;SDS011;9904;52.246;20.898;2023-09-07T23:13:13;13.50;;;5.37;;
19519;SDS011;9904;52.246;20.898;2023-09-07T23:15:42;10.77;;;5.77;;
19519;SDS011;9904;52.246;20.898;2023-09-07T23:18:09;10.53;;;4.63;;
19519;SDS011;9904;52.246;20.898;2023-09-07T23:20:36;9.50;;;5.27;;
19519;SDS011;9904;52.246;20.898;2023-09-07T23:23:03;12.50;;;5.50;;
19519;SDS011;9904;52.246;20.898;2023-09-07T23:25:30;9.73;;;4.90;;
19519;SDS011;9904;52.246;20.898;2023-09-07T23:27:56;12.10;;;5.37;;
19519;SDS011;9904;52.246;20.898;2023-09-07T23:30:24;10.27;;;4.87;;
19519;SDS011;9904;52.246;20.898;2023-09-07T23:32:51;11.30;;;5.17;;
19519;SDS011;9904;52.246;20.898;2023-09-07T23:35:18;11.87;;;5.03;;
19519;SDS011;9904;52.246;20.898;2023-09-07T23:37:45;10.90;;;5.07;;
19519;SDS011;9904;52.246;20.898;2023-09-07T23:40:11;12.40;;;5.63;;
19519;SDS011;9904;52.246;20.898;2023-09-07T23:42:41;15.07;;;5.67;;
19519;SDS011;9904;52.246;20.898;2023-09-07T23:45:09;11.67;;;5.30;;
19519;SDS011;9904;52.246;20.898;2023-09-07T23:47:36;12.23;;;5.47;;
19519;SDS011;9904;52.246;20.898;2023-09-07T23:50:04;13.27;;;5.67;;
19519;SDS011;9904;52.246;20.898;2023-09-07T23:52:31;12.87;;;5.47;;
19519;SDS011;9904;52.246;20.898;2023-09-07T23:54:59;11.60;;;6.17;;
19519;SDS011;9904;52.246;20.898;2023-09-07T23:57:26;15.33;;;5.93;;
19519;SDS011;9904;52.246;20.898;2023-09-07T23:59:53;9.50;;;5.47;;
